createdAt,value
2019-03-03T00:01:42.842Z,50.70
2019-03-03T00:06:49.101Z,41.75
2019-03-03T00:11:55.401Z,43.38
2019-03-03T00:17:01.573Z,40.35
2019-03-03T00:22:07.726Z,41.33
2019-03-03T00:27:14.034Z,35.80
2019-03-03T00:32:20.445Z,36.93
2019-03-03T00:37:30.260Z,41.58
2019-03-03T00:42:58.436Z,41.05
2019-03-03T00:48:29.553Z,37.17
2019-03-03T00:53:54.679Z,43.68
2019-03-03T00:59:22.742Z,48.75
2019-03-03T01:04:56.564Z,38.65
2019-03-03T01:10:11.024Z,38.40
2019-03-03T01:15:36.090Z,37.00
2019-03-03T01:20:55.473Z,33.90
2019-03-03T01:26:01.815Z,39.27
2019-03-03T01:31:08.124Z,35.65
2019-03-03T01:36:14.402Z,23.87
2019-03-03T01:41:21.247Z,28.70
2019-03-03T01:46:27.470Z,29.75
2019-03-03T01:51:33.698Z,25.70
2019-03-03T01:56:39.971Z,34.08
2019-03-03T02:01:46.600Z,26.23
2019-03-03T02:06:52.834Z,29.15
2019-03-03T02:11:59.033Z,27.48
2019-03-03T02:17:07.375Z,61.80
2019-03-03T02:22:13.911Z,34.27
2019-03-03T02:27:19.955Z,29.10
2019-03-03T02:32:26.279Z,28.45
2019-03-03T02:37:32.495Z,32.98
2019-03-03T02:42:38.874Z,37.67
2019-03-03T02:47:45.107Z,43.33
2019-03-03T02:52:51.360Z,49.77
2019-03-03T02:57:57.393Z,44.88
2019-03-03T03:03:04.902Z,78.90
2019-03-03T03:08:14.090Z,50.90
2019-03-03T03:13:39.384Z,33.20
2019-03-03T03:19:07.252Z,45.10
2019-03-03T03:24:30.760Z,31.90
2019-03-03T03:30:10.862Z,26.80
2019-03-03T03:35:42.015Z,23.32
2019-03-03T03:41:18.879Z,22.95
2019-03-03T03:46:45.856Z,30.95
2019-03-03T03:52:03.493Z,37.93
2019-03-03T03:57:25.700Z,22.27
2019-03-03T04:02:52.818Z,35.03
2019-03-03T04:08:19.412Z,33.28
2019-03-03T04:13:49.089Z,23.40
2019-03-03T04:19:12.861Z,25.45
2019-03-03T04:24:56.328Z,18.73
2019-03-03T04:30:24.065Z,24.70
2019-03-03T04:35:48.627Z,24.77
2019-03-03T04:41:09.819Z,27.73
2019-03-03T04:46:37.604Z,30.90
2019-03-03T04:52:08.685Z,30.32
2019-03-03T04:57:45.691Z,27.05
2019-03-03T05:03:08.571Z,21.27
2019-03-03T05:08:19.431Z,22.45
2019-03-03T05:13:47.016Z,18.20
2019-03-03T05:18:59.429Z,21.30
2019-03-03T05:24:05.679Z,26.05
2019-03-03T05:29:11.949Z,33.10
2019-03-03T05:34:18.165Z,29.65
2019-03-03T05:39:24.555Z,27.00
2019-03-03T05:44:30.782Z,21.77
2019-03-03T05:49:37.107Z,21.87
2019-03-03T05:54:43.243Z,22.25
2019-03-03T05:59:49.492Z,18.73
2019-03-03T06:04:55.530Z,25.60
2019-03-03T06:10:01.564Z,26.60
2019-03-03T06:15:12.672Z,52.23
2019-03-03T06:20:18.454Z,42.23
2019-03-03T06:25:24.738Z,26.02
2019-03-03T06:30:30.919Z,33.60
2019-03-03T06:35:37.968Z,21.02
2019-03-03T06:40:44.147Z,18.77
2019-03-03T06:45:50.386Z,19.80
2019-03-03T06:50:56.996Z,23.32
2019-03-03T06:56:03.093Z,24.75
2019-03-03T07:01:09.432Z,29.55
2019-03-03T07:06:16.358Z,24.65
2019-03-03T07:11:22.712Z,22.22
2019-03-03T07:16:28.853Z,21.33
2019-03-03T07:21:35.155Z,31.17
2019-03-03T07:26:41.445Z,39.90
2019-03-03T07:31:47.486Z,33.83
2019-03-03T07:36:53.524Z,28.05
2019-03-03T07:41:59.604Z,26.97
2019-03-03T07:47:06.049Z,30.50
2019-03-03T07:52:12.121Z,24.85
2019-03-03T07:57:18.337Z,22.80
2019-03-03T08:02:24.718Z,25.80
2019-03-03T08:07:30.821Z,24.70
2019-03-03T08:12:37.189Z,25.15
2019-03-03T08:17:43.285Z,26.48
2019-03-03T08:22:49.490Z,30.82
2019-03-03T08:27:55.630Z,25.60
2019-03-03T08:33:01.876Z,28.75
2019-03-03T08:38:07.944Z,28.35
2019-03-03T08:43:32.938Z,24.63
2019-03-03T08:48:53.109Z,18.23
2019-03-03T08:54:10.117Z,21.42
2019-03-03T08:59:24.204Z,21.65
2019-03-03T09:04:51.066Z,17.92
2019-03-03T09:10:25.233Z,16.97
2019-03-03T09:15:38.839Z,14.50
2019-03-03T09:20:58.854Z,17.02
2019-03-03T09:26:26.799Z,13.35
2019-03-03T09:31:48.278Z,14.45
2019-03-03T09:37:11.972Z,14.28
2019-03-03T09:42:35.712Z,13.48
2019-03-03T09:47:59.335Z,11.88
2019-03-03T09:53:18.101Z,11.10
2019-03-03T09:58:34.827Z,9.23
2019-03-03T10:03:46.971Z,8.53
2019-03-03T10:09:14.860Z,7.47
2019-03-03T10:14:45.527Z,5.85
2019-03-03T10:20:16.706Z,6.65
2019-03-03T10:25:41.806Z,6.42
2019-03-03T10:31:04.398Z,10.25
2019-03-03T10:42:05.239Z,6.40
2019-03-03T10:47:36.454Z,5.53
2019-03-03T10:52:59.758Z,4.42
2019-03-03T10:58:13.321Z,3.17
2019-03-03T11:03:38.370Z,4.30
2019-03-03T11:08:53.978Z,4.53
2019-03-03T11:14:25.362Z,4.67
2019-03-03T11:19:51.639Z,6.20
2019-03-03T11:25:31.635Z,4.10
2019-03-03T11:30:59.398Z,4.65
2019-03-03T11:36:30.748Z,5.75
2019-03-03T11:41:54.351Z,6.80
2019-03-03T11:47:18.327Z,6.97
2019-03-03T11:52:46.074Z,5.15
2019-03-03T11:58:26.297Z,5.37
2019-03-03T12:03:51.416Z,8.75
2019-03-03T12:09:10.197Z,6.67
2019-03-03T12:14:35.282Z,6.83
2019-03-03T12:20:12.448Z,6.60
2019-03-03T12:25:49.499Z,6.12
2019-03-03T12:31:12.746Z,7.80
2019-03-03T12:36:40.831Z,6.75
2019-03-03T12:42:17.321Z,6.87
2019-03-03T12:47:42.497Z,7.58
2019-03-03T12:53:05.207Z,7.53
2019-03-03T12:58:35.729Z,8.95
2019-03-03T13:03:55.002Z,9.20
2019-03-03T13:09:19.367Z,9.23
2019-03-03T13:14:44.163Z,11.93
2019-03-03T13:20:10.373Z,9.68
2019-03-03T13:25:37.897Z,11.35
2019-03-03T13:31:01.006Z,14.18
2019-03-03T13:36:19.244Z,11.85
2019-03-03T13:41:36.687Z,9.68
2019-03-03T13:46:42.834Z,8.08
2019-03-03T13:51:49.130Z,6.55
2019-03-03T13:56:55.301Z,7.45
2019-03-03T14:02:01.468Z,7.42
2019-03-03T14:07:11.227Z,7.20
2019-03-03T14:12:17.322Z,7.62
2019-03-03T14:17:24.062Z,9.40
2019-03-03T14:22:30.302Z,9.03
2019-03-03T14:27:36.777Z,7.62
2019-03-03T14:32:42.794Z,9.93
2019-03-03T14:37:48.809Z,12.23
2019-03-03T14:42:55.382Z,13.65
2019-03-03T14:48:01.607Z,13.40
2019-03-03T14:53:07.892Z,9.23
2019-03-03T14:58:14.002Z,14.75
2019-03-03T15:03:19.848Z,9.08
2019-03-03T15:08:26.234Z,8.20
2019-03-03T15:13:32.374Z,9.30
2019-03-03T15:18:38.234Z,9.38
2019-03-03T15:23:44.166Z,13.88
2019-03-03T15:28:49.972Z,11.38
2019-03-03T15:33:55.835Z,12.50
2019-03-03T15:39:01.675Z,12.85
2019-03-03T15:44:07.677Z,12.03
2019-03-03T15:49:14.317Z,10.43
2019-03-03T15:54:20.616Z,10.60
2019-03-03T15:59:26.873Z,12.18
2019-03-03T16:04:33.098Z,14.90
2019-03-03T16:09:39.354Z,14.83
2019-03-03T16:14:45.551Z,16.27
2019-03-03T16:19:51.818Z,15.90
2019-03-03T16:24:57.892Z,15.85
2019-03-03T16:30:04.582Z,12.80
2019-03-03T16:35:11.270Z,14.13
2019-03-03T16:40:19.352Z,20.20
2019-03-03T16:45:25.892Z,15.30
2019-03-03T16:50:32.257Z,13.22
2019-03-03T16:55:38.653Z,12.25
2019-03-03T17:00:44.918Z,14.07
2019-03-03T17:05:51.213Z,17.23
2019-03-03T17:10:57.422Z,14.28
2019-03-03T17:16:03.348Z,14.25
2019-03-03T17:21:09.471Z,13.58
2019-03-03T17:26:15.594Z,18.35
2019-03-03T17:31:22.234Z,25.10
2019-03-03T17:36:28.355Z,19.30
2019-03-03T17:41:35.216Z,23.07
2019-03-03T17:46:41.504Z,16.25
2019-03-03T17:51:47.715Z,23.98
2019-03-03T17:56:53.580Z,21.33
2019-03-03T18:01:59.544Z,32.03
2019-03-03T18:07:05.392Z,36.77
2019-03-03T18:12:11.275Z,156.32
2019-03-03T18:17:17.735Z,39.50
2019-03-03T18:22:23.905Z,66.95
2019-03-03T18:27:30.069Z,25.43
2019-03-03T18:32:36.345Z,21.00
2019-03-03T18:37:42.561Z,18.77
2019-03-03T18:42:48.823Z,19.37
2019-03-03T18:47:54.922Z,16.45
2019-03-03T18:53:01.082Z,24.92
2019-03-03T18:58:07.371Z,17.55
2019-03-03T19:03:13.647Z,23.27
2019-03-03T19:08:21.543Z,53.23
2019-03-03T19:13:27.779Z,51.08
2019-03-03T19:18:33.987Z,65.42
2019-03-03T19:23:40.159Z,61.55
2019-03-03T19:28:46.566Z,12.93
2019-03-03T19:33:54.590Z,14.65
2019-03-03T19:39:00.669Z,13.98
2019-03-03T19:44:06.868Z,12.60
2019-03-03T19:49:13.212Z,10.95
2019-03-03T19:54:19.570Z,11.10
2019-03-03T19:59:25.721Z,9.43
2019-03-03T20:04:31.850Z,8.78
2019-03-03T20:09:38.302Z,8.65
2019-03-03T20:14:44.482Z,8.33
2019-03-03T20:19:50.591Z,8.20
2019-03-03T20:24:56.795Z,9.15
2019-03-03T20:30:02.933Z,7.58
2019-03-03T20:35:10.690Z,8.50
2019-03-03T20:40:16.802Z,12.10
2019-03-03T20:45:23.756Z,7.70
2019-03-03T20:50:30.098Z,13.00
2019-03-03T20:55:36.260Z,13.43
2019-03-03T21:00:42.378Z,13.20
2019-03-03T21:05:50.088Z,27.35
2019-03-03T21:10:56.240Z,24.02
2019-03-03T21:16:02.908Z,29.95
2019-03-03T21:21:09.282Z,33.85
2019-03-03T21:26:15.284Z,31.40
2019-03-03T21:31:21.447Z,27.80
2019-03-03T21:36:27.405Z,18.45
2019-03-03T21:41:33.588Z,24.65
2019-03-03T21:46:39.895Z,17.87
2019-03-03T21:51:46.136Z,10.58
2019-03-03T21:56:52.207Z,14.18
2019-03-03T22:01:58.399Z,17.23
2019-03-03T22:07:04.699Z,25.85
2019-03-03T22:12:11.022Z,14.78
2019-03-03T22:17:17.255Z,17.20
2019-03-03T22:22:23.712Z,14.68
2019-03-03T22:27:29.903Z,22.42
2019-03-03T22:32:35.965Z,19.98
2019-03-03T22:37:42.074Z,17.92
2019-03-03T22:42:48.060Z,14.35
2019-03-03T22:47:54.104Z,21.65
2019-03-03T22:53:00.298Z,26.97
2019-03-03T22:58:06.343Z,24.37
2019-03-03T23:03:13.266Z,20.88
2019-03-03T23:08:37.348Z,19.70
2019-03-03T23:14:27.255Z,24.23
2019-03-03T23:19:46.641Z,25.77
2019-03-03T23:25:45.663Z,23.02
2019-03-03T23:30:52.390Z,28.35
2019-03-03T23:35:58.618Z,29.45
2019-03-03T23:41:04.697Z,30.92
2019-03-03T23:46:11.001Z,31.70
2019-03-03T23:51:17.156Z,36.53
2019-03-03T23:56:23.351Z,31.60
